Mount Horeb, WI

1:21 PM CDT on May 05, 2015 (GMT -0500)
Dane County Regional-Truax | | Change Station
CLOSE
Current Station
Airport
Location: Madison,
Elevation: 866 ft
Nearby Weather Stations

Elev 866 ft 43.14 °N, 89.35 °W | Updated 28 minutes ago

Overcast
Overcast
53 °F
Feels Like 53 °F
N
14
Wind Variable Wind from ENE

Today
High -- | Low -- °F
--% Chance of Precip.
Yesterday
High -- | Low -- °F
Precip. -- in
5:47 AM 8:04 PM
Full, 97% visible
Pressure 30.27 in
Visibility 2.5 miles
Clouds Mostly Cloudy 1000 ft
Overcast 2500 ft
Dew Point 50 °F
Humidity 89%
Rainfall 0.34 in
Snow Depth Not available.
UV 3 out of 12
Pollen 8.70 out of 12
Air Quality Not available.
Flu Activity Local Activity
METAR KMSN 051753Z 07012KT 2 1/2SM -RA BR BKN010 OVC025 12/10 A3027 RMK AO2 SFC VIS 3 SLP250 P0002 60019 T01170100 10117 20094 50001

More Conditions Fewer Conditions

Pressure 30.27 in
Visibility 2.5 miles
Clouds Mostly Cloudy 1000 ft
Overcast 2500 ft
Dew Point 50 °F
Humidity 89%
Rainfall 0.34 in
Snow Depth Not available.
UV 3 out of 12
Pollen 8.70 out of 12
Air Quality Not available.
Flu Activity Local Activity
METAR KMSN 051753Z 07012KT 2 1/2SM -RA BR BKN010 OVC025 12/10 A3027 RMK AO2 SFC VIS 3 SLP250 P0002 60019 T01170100 10117 20094 50001

More Conditions Fewer Conditions

10-Day Weather Forecast

Almanac

Astronomy

May. 05, 2015 Rise Set
Actual Time
Civil Twilight
Nautical Twilight
Astronomical Twilight
Moon
Length of Visible Light
Length of Day
Tomorrow will be .
, % of the Moon is Illuminated

Today's Extremes

State Highs State Lows

Community

WunderPhotos

Upload Photos

1,818,951 photos uploaded!

WunderBlogs® & News

Nearby

Air Quality

  Air Quality AQ Index Pollutant
Not available.

Snow Depth

Station Depth Elevation

Earthquake Activity

City Distance Mag. Time & Date
Minimum magnitude displayed is 2.5.

Coastal Water Temperatures

Place Temperature

Stations

Nearby Weather Stations

Station Location Temp. Windchill Dew Point Humidity Wind Precip. Elev Updated Type